Time;durP1;ratioP1;P1;durP2;ratioP2;P2;SDS_P1;SDS_P2;PMS_P1;PMS_P2;Temp;Humidity;BMP_temperature;BMP_pressure;BME280_temperature;BME280_humidity;BME280_pressure;Samples;Min_cycle;Max_cycle;Signal;HPM_P1;HPM_P2
2022/01/06 00:00:37;;;;;;;46.50;26.87;;;;;;;7.68;73.97;99206.34;125205;1102;104258;-80
2022/01/06 00:03:10;;;;;;;46.15;26.87;;;;;;;7.67;73.60;99212.39;125217;1100;104194;-80
2022/01/06 00:05:45;;;;;;;49.77;27.47;;;;;;;7.65;74.18;99207.96;125243;1102;104159;-79
2022/01/06 00:08:18;;;;;;;50.05;28.60;;;;;;;7.64;73.56;99207.09;125244;1102;104168;-80
2022/01/06 00:10:52;;;;;;;47.53;27.50;;;;;;;7.64;74.11;99201.00;125203;1102;105197;-80
2022/01/06 00:13:29;;;;;;;46.33;26.60;;;;;;;7.62;73.94;99193.13;125143;1102;104313;-80
2022/01/06 00:16:12;;;;;;;49.70;26.53;;;;;;;7.60;74.07;99202.63;125166;1102;104159;-79
2022/01/06 00:24:38;;;;;;;49.33;27.00;;;;;;;7.53;74.21;99209.41;125010;1105;104392;-80
2022/01/06 00:27:10;;;;;;;47.87;26.37;;;;;;;7.53;73.94;99212.02;125154;1102;105247;-80
2022/01/06 00:29:42;;;;;;;46.40;26.07;;;;;;;7.53;74.08;99214.63;125164;1102;104169;-81
2022/01/06 00:32:17;;;;;;;44.40;23.83;;;;;;;7.51;73.97;99213.72;125210;1102;104306;-80
2022/01/06 00:34:53;;;;;;;41.27;23.33;;;;;;;7.49;74.24;99220.59;125277;1102;104271;-80
2022/01/06 00:37:25;;;;;;;41.10;23.37;;;;;;;7.44;74.33;99224.81;125213;1102;104213;-80
2022/01/06 00:39:57;;;;;;;42.10;23.50;;;;;;;7.42;74.52;99221.30;125153;1102;104316;-80
2022/01/06 00:42:31;;;;;;;46.42;24.60;;;;;;;7.44;74.25;99216.11;125257;1102;104160;-80
2022/01/06 00:45:05;;;;;;;43.27;23.37;;;;;;;7.44;74.44;99203.06;125252;1102;104732;-80
2022/01/06 00:47:38;;;;;;;42.30;23.25;;;;;;;7.44;74.49;99206.55;125250;1102;104203;-80
2022/01/06 00:50:16;;;;;;;41.77;24.67;;;;;;;7.41;74.50;99209.08;125215;1102;104435;-79
2022/01/06 00:52:48;;;;;;;43.40;23.70;;;;;;;7.39;74.47;99205.55;125226;1102;104403;-80
2022/01/06 00:55:24;;;;;;;42.33;24.27;;;;;;;7.36;74.41;99201.12;125233;1102;104268;-79
2022/01/06 00:58:00;;;;;;;43.50;23.43;;;;;;;7.33;74.56;99200.16;125260;1099;104245;-79
2022/01/06 01:00:40;;;;;;;44.67;25.07;;;;;;;7.29;74.13;99195.68;125218;1099;104143;-80
2022/01/06 01:03:14;;;;;;;45.77;25.80;;;;;;;7.23;74.79;99195.51;125292;1102;104264;-81
2022/01/06 01:05:47;;;;;;;43.80;24.43;;;;;;;7.20;74.08;99193.72;125223;1102;104153;-80
2022/01/06 01:08:23;;;;;;;39.80;22.93;;;;;;;7.16;74.55;99192.73;125284;1102;101605;-80
2022/01/06 01:10:56;;;;;;;39.47;20.73;;;;;;;7.15;74.78;99196.20;125207;1099;104251;-79
2022/01/06 01:13:30;;;;;;;40.20;20.85;;;;;;;7.17;74.83;99204.94;125227;1102;104232;-81
2022/01/06 01:16:20;;;;;;;37.90;21.67;;;;;;;7.19;75.00;99207.59;125201;1099;104153;-80
2022/01/06 01:18:56;;;;;;;42.50;22.87;;;;;;;7.15;74.41;99209.24;125195;1099;104176;-81
2022/01/06 01:21:31;;;;;;;40.47;22.20;;;;;;;7.14;74.82;99215.29;125124;1102;102865;-80
2022/01/06 01:24:03;;;;;;;43.87;23.17;;;;;;;7.14;75.01;99212.68;125246;1102;104174;-81
2022/01/06 01:26:35;;;;;;;39.90;23.07;;;;;;;7.13;75.08;99207.42;125268;1102;104159;-80
2022/01/06 01:29:15;;;;;;;40.50;22.43;;;;;;;7.13;74.65;99207.42;125232;1102;105806;-80
2022/01/06 01:31:50;;;;;;;41.50;22.77;;;;;;;7.10;74.49;99213.42;125240;1099;104171;-81
2022/01/06 01:34:28;;;;;;;40.17;22.67;;;;;;;7.04;74.75;99207.16;125229;1102;104159;-81
2022/01/06 01:37:03;;;;;;;43.20;23.60;;;;;;;6.99;74.54;99213.11;125255;1099;104182;-80
2022/01/06 01:39:36;;;;;;;43.63;23.73;;;;;;;6.97;74.75;99219.14;125304;1099;104155;-80
2022/01/06 01:42:08;;;;;;;46.17;24.70;;;;;;;6.94;74.97;99222.53;125177;1099;104613;-80
2022/01/06 01:44:42;;;;;;;44.57;24.40;;;;;;;6.97;75.09;99211.31;125178;1102;104246;-81
2022/01/06 01:47:26;;;;;;;42.10;24.43;;;;;;;6.94;74.96;99217.31;125293;1102;104284;-81
2022/01/06 01:50:11;;;;;;;42.50;23.70;;;;;;;6.96;74.89;99205.19;125204;1101;104149;-79
2022/01/06 01:52:45;;;;;;;42.17;23.85;;;;;;;6.96;75.00;99206.92;125289;1099;104143;-81
2022/01/06 01:55:29;;;;;;;40.67;22.07;;;;;;;6.93;74.88;99207.70;125288;1099;104172;-80
2022/01/06 01:58:01;;;;;;;;;;;;;;;6.91;75.22;99211.13;125259;1102;104213;-79
2022/01/06 02:00:35;;;;;;;42.63;22.93;;;;;;;6.92;75.31;99198.14;125257;1102;104178;-80
2022/01/06 02:03:08;;;;;;;41.77;21.80;;;;;;;6.90;74.92;99198.92;125147;1100;104142;-80
2022/01/06 02:05:44;;;;;;;37.47;21.23;;;;;;;6.89;75.17;99200.66;125292;1102;104153;-81
2022/01/06 02:08:15;;;;;;;41.07;21.03;;;;;;;6.90;75.16;99205.01;125298;1102;104226;-80
2022/01/06 02:10:48;;;;;;;40.53;22.23;;;;;;;6.91;75.20;99192.87;125213;1102;104376;-79
2022/01/06 02:13:27;;;;;;;38.43;20.73;;;;;;;6.91;75.16;99185.05;125226;1102;104153;-81
2022/01/06 02:16:03;;;;;;;37.53;20.70;;;;;;;6.91;75.11;99198.09;125242;1102;104146;-80
2022/01/06 02:18:39;;;;;;;32.53;16.57;;;;;;;6.93;75.30;99199.88;125283;1099;105028;-80
2022/01/06 02:21:11;;;;;;;36.03;20.10;;;;;;;6.99;75.38;99204.41;125261;1099;104157;-80
2022/01/06 02:23:43;;;;;;;38.80;22.50;;;;;;;6.93;75.18;99207.70;125155;1099;104293;-81
2022/01/06 02:26:16;;;;;;;44.37;25.30;;;;;;;6.86;75.41;99210.99;125204;1100;104230;-80
2022/01/06 02:28:47;;;;;;;46.93;24.93;;;;;;;6.81;75.17;99218.67;125249;1102;105123;-80
2022/01/06 02:31:20;;;;;;;42.97;24.10;;;;;;;6.79;75.40;99216.85;125282;1102;105746;-80
2022/01/06 02:33:52;;;;;;;43.13;24.60;;;;;;;6.77;75.42;99211.59;125182;1099;105511;-81
2022/01/06 02:36:23;;;;;;;40.70;23.97;;;;;;;6.76;75.29;99228.09;125152;1099;104274;-80
2022/01/06 02:38:54;;;;;;;42.40;23.90;;;;;;;6.71;75.46;99228.78;125242;1099;104220;-79
2022/01/06 02:41:26;;;;;;;43.57;23.70;;;;;;;6.66;75.30;99231.23;125222;1099;104239;-80
2022/01/06 02:43:57;;;;;;;42.77;23.23;;;;;;;6.63;75.35;99252.88;125230;1099;104219;-80
2022/01/06 02:46:29;;;;;;;57.03;32.83;;;;;;;6.43;75.63;99275.69;125265;1102;104258;-81
2022/01/06 02:49:01;;;;;;;57.00;33.43;;;;;;;6.19;75.51;99307.04;125252;1100;104245;-81
2022/01/06 02:51:34;;;;;;;58.27;33.50;;;;;;;6.02;75.42;99283.02;125219;1102;104159;-81
2022/01/06 02:54:08;;;;;;;58.73;34.63;;;;;;;5.98;75.39;99283.73;125163;1102;104178;-80
2022/01/06 02:56:42;;;;;;;55.10;31.57;;;;;;;5.99;75.80;99297.66;125214;1102;104220;-81
2022/01/06 02:59:11;;;;;;;;;;;;;;;5.97;75.69;99301.91;125288;1102;104185;-81
2022/01/06 03:01:46;;;;;;;46.47;27.53;;;;;;;5.93;75.50;99306.09;125193;1102;104389;-81
2022/01/06 03:04:17;;;;;;;41.68;23.87;;;;;;;5.92;75.66;99314.73;125192;1099;104735;-81
2022/01/06 03:06:48;;;;;;;46.80;24.73;;;;;;;5.89;75.54;99307.72;125251;1099;104156;-80
2022/01/06 03:09:25;;;;;;;45.10;24.77;;;;;;;5.87;75.68;99313.70;125298;1102;104182;-80
2022/01/06 03:12:01;;;;;;;39.80;22.70;;;;;;;5.88;75.56;99312.88;125212;1102;104331;-81
2022/01/06 03:14:32;;;;;;;37.20;20.63;;;;;;;5.88;75.82;99300.73;125113;1102;104226;-81
2022/01/06 03:17:04;;;;;;;37.00;21.93;;;;;;;5.89;75.65;99293.80;125271;1102;104149;-81
2022/01/06 03:19:36;;;;;;;40.27;22.87;;;;;;;5.90;75.94;99308.59;125249;1102;104143;-81
2022/01/06 03:22:07;;;;;;;37.57;19.93;;;;;;;5.91;75.68;99310.38;125314;1100;104216;-81
2022/01/06 03:24:41;;;;;;;33.10;17.83;;;;;;;5.91;75.82;99305.17;125209;1100;104152;-80
2022/01/06 03:27:12;;;;;;;30.57;16.90;;;;;;;5.89;75.91;99304.20;125219;1102;104178;-81
2022/01/06 03:29:44;;;;;;;30.30;15.83;;;;;;;5.88;76.16;99310.27;125190;1102;104173;-80
2022/01/06 03:32:17;;;;;;;29.03;15.73;;;;;;;5.86;75.70;99312.82;125243;1102;104271;-81
2022/01/06 03:34:49;;;;;;;30.47;15.37;;;;;;;5.85;76.16;99320.58;125180;1102;104207;-80
2022/01/06 03:37:21;;;;;;;30.17;15.33;;;;;;;5.83;75.99;99319.61;125374;1100;104267;-80
2022/01/06 03:39:54;;;;;;;31.17;15.23;;;;;;;5.80;75.89;99325.62;125258;1101;104300;-80
2022/01/06 03:42:25;;;;;;;30.40;15.93;;;;;;;5.76;76.18;99311.61;125311;1102;104174;-79
2022/01/06 03:44:56;;;;;;;29.00;15.70;;;;;;;5.76;76.09;99323.72;125247;1099;104258;-79
2022/01/06 03:47:33;;;;;;;29.03;15.13;;;;;;;5.77;76.21;99328.11;125333;1099;104149;-81
2022/01/06 03:50:07;;;;;;;28.40;14.97;;;;;;;5.77;76.07;99317.70;125311;1100;104178;-80
2022/01/06 03:52:54;;;;;;;29.25;15.35;;;;;;;5.78;75.75;99328.98;125138;1099;104159;-81
2022/01/06 03:55:25;;;;;;;28.97;15.73;;;;;;;5.77;75.97;99330.71;125221;1099;104194;-80
2022/01/06 03:57:56;;;;;;;28.73;16.13;;;;;;;5.75;76.02;99329.78;125290;1102;104156;-81
2022/01/06 04:00:29;;;;;;;29.77;15.13;;;;;;;5.73;76.31;99340.14;125250;1102;104144;-80
2022/01/06 04:03:02;;;;;;;26.50;14.30;;;;;;;5.72;75.73;99346.16;125210;1102;104279;-81
2022/01/06 04:05:35;;;;;;;26.87;14.57;;;;;;;5.70;75.81;99342.62;125154;1102;104280;-80
2022/01/06 04:08:07;;;;;;;31.07;15.13;;;;;;;5.71;75.93;99341.77;125222;1102;104222;-81
2022/01/06 04:10:39;;;;;;;31.10;15.03;;;;;;;5.71;76.11;99357.39;125216;1102;104146;-81
2022/01/06 04:13:24;;;;;;;28.73;14.33;;;;;;;5.70;76.17;99337.42;125263;1102;104219;-80
2022/01/06 04:15:57;;;;;;;25.67;13.00;;;;;;;5.69;75.94;99326.95;125239;1102;104287;-81
2022/01/06 04:18:30;;;;;;;26.77;14.13;;;;;;;5.66;76.40;99338.13;125166;1102;104207;-81
2022/01/06 04:21:06;;;;;;;28.20;12.90;;;;;;;5.64;76.28;99336.28;125244;1102;104219;-81
2022/01/06 04:23:40;;;;;;;24.43;12.87;;;;;;;5.59;76.00;99338.72;125197;1102;104191;-80
2022/01/06 04:26:22;;;;;;;25.65;11.93;;;;;;;5.54;76.29;99337.67;125187;1100;104142;-80
2022/01/06 04:28:56;;;;;;;26.87;13.43;;;;;;;5.49;76.18;99342.70;125238;1102;104146;-81
2022/01/06 04:31:27;;;;;;;25.73;13.30;;;;;;;5.45;75.91;99334.73;125221;1102;104255;-81
2022/01/06 04:33:59;;;;;;;25.43;13.30;;;;;;;5.40;76.56;99335.43;125279;1102;104219;-81
2022/01/06 04:36:34;;;;;;;27.07;12.93;;;;;;;5.37;76.18;99345.72;125242;1100;104159;-81
2022/01/06 04:39:06;;;;;;;26.97;12.80;;;;;;;5.35;76.20;99364.72;125209;1102;104207;-80
2022/01/06 04:41:39;;;;;;;24.10;12.33;;;;;;;5.33;76.39;99375.06;125254;1102;104606;-81
2022/01/06 04:44:10;;;;;;;25.53;12.00;;;;;;;5.31;76.42;99368.02;125215;1102;104162;-81
2022/01/06 04:46:42;;;;;;;23.63;11.90;;;;;;;5.30;76.28;99355.83;125255;1099;104204;-81
2022/01/06 04:49:16;;;;;;;23.93;13.00;;;;;;;5.32;76.36;99362.88;125229;1102;104172;-81
2022/01/06 04:51:48;;;;;;;26.90;12.50;;;;;;;5.32;76.46;99362.88;125237;1102;104147;-81
2022/01/06 04:54:21;;;;;;;26.07;12.70;;;;;;;5.32;76.30;99360.27;125113;1102;104306;-80
2022/01/06 04:56:54;;;;;;;23.63;11.80;;;;;;;5.35;76.28;99372.52;125112;1100;102804;-80
2022/01/06 04:59:25;;;;;;;25.37;12.03;;;;;;;5.36;76.53;99377.79;125105;1102;104271;-81
2022/01/06 05:02:00;;;;;;;22.13;11.03;;;;;;;5.37;76.13;99373.45;125163;1100;104657;-80
2022/01/06 05:04:31;;;;;;;22.47;11.27;;;;;;;5.35;76.56;99386.41;125177;1100;104181;-80
2022/01/06 05:07:04;;;;;;;25.87;11.40;;;;;;;5.34;76.28;99388.95;125192;1099;104251;-81
2022/01/06 05:09:35;;;;;;;22.77;11.50;;;;;;;5.33;76.54;99410.58;125173;1099;104270;-81
2022/01/06 05:12:08;;;;;;;24.30;12.33;;;;;;;5.30;76.48;99418.26;125237;1100;104153;-80
2022/01/06 05:14:40;;;;;;;25.10;12.90;;;;;;;5.25;76.62;99412.91;125230;1102;104150;-81
2022/01/06 05:17:11;;;;;;;23.80;12.70;;;;;;;5.22;77.12;99420.59;125212;1102;104187;-80
2022/01/06 05:19:44;;;;;;;25.00;12.90;;;;;;;5.18;77.26;99431.69;125130;1102;104160;-81
2022/01/06 05:22:15;;;;;;;26.03;12.53;;;;;;;5.14;76.85;99434.98;125168;1102;105140;-81
2022/01/06 05:24:47;;;;;;;26.03;13.17;;;;;;;5.09;76.79;99428.71;125207;1102;104153;-81
2022/01/06 05:27:20;;;;;;;26.63;13.17;;;;;;;5.04;76.72;99433.73;125141;1102;104201;-81
2022/01/06 05:29:51;;;;;;;25.90;13.73;;;;;;;5.00;77.16;99434.41;125264;1098;104190;-81
2022/01/06 05:32:23;;;;;;;28.13;13.10;;;;;;;4.96;76.45;99438.61;125160;1099;104234;-81
2022/01/06 05:34:54;;;;;;;25.40;13.23;;;;;;;4.93;77.38;99450.61;125231;1099;104153;-82
2022/01/06 05:37:26;;;;;;;26.53;13.10;;;;;;;4.89;77.24;99454.77;125238;1099;104162;-81
2022/01/06 05:39:57;;;;;;;24.43;12.47;;;;;;;4.88;76.95;99445.22;125233;1102;104249;-81
2022/01/06 05:42:29;;;;;;;26.57;13.00;;;;;;;4.86;77.05;99442.55;125227;1102;104143;-81
2022/01/06 05:45:00;;;;;;;24.90;12.17;;;;;;;4.85;77.46;99448.56;125167;1102;104141;-82
2022/01/06 05:47:32;;;;;;;24.73;12.47;;;;;;;4.84;77.18;99448.50;125143;1099;104597;-81
2022/01/06 05:50:04;;;;;;;28.23;12.30;;;;;;;4.82;77.43;99447.56;125215;1099;104216;-80
2022/01/06 05:52:36;;;;;;;23.30;12.73;;;;;;;4.81;76.97;99453.57;125249;1099;104149;-81
2022/01/06 05:55:08;;;;;;;28.30;13.47;;;;;;;4.79;76.91;99460.42;125201;1102;104239;-80
2022/01/06 05:57:42;;;;;;;26.00;12.77;;;;;;;4.80;77.49;99452.70;125138;1099;104158;-81
2022/01/06 06:00:15;;;;;;;31.27;14.33;;;;;;;4.82;77.20;99447.56;125163;1102;104200;-80
2022/01/06 06:02:52;;;;;;;30.57;14.13;;;;;;;4.84;77.45;99464.97;125157;1102;104188;-81
2022/01/06 06:05:26;;;;;;;26.93;13.97;;;;;;;4.87;77.38;99472.02;125106;1102;104162;-82
2022/01/06 06:07:59;;;;;;;27.85;13.43;;;;;;;4.91;77.15;99467.83;125080;1099;104258;-81
2022/01/06 06:10:32;;;;;;;25.27;12.77;;;;;;;4.92;77.90;99472.22;125047;1099;104150;-81
2022/01/06 06:13:04;;;;;;;26.25;12.60;;;;;;;4.91;77.46;99480.83;124990;1099;104238;-80
2022/01/06 06:15:35;;;;;;;23.67;12.10;;;;;;;4.91;77.15;99486.03;124970;1099;104156;-81
2022/01/06 06:18:11;;;;;;;23.07;11.73;;;;;;;4.92;77.49;99488.69;124948;1102;104258;-80
2022/01/06 06:20:45;;;;;;;26.73;12.90;;;;;;;4.94;77.74;99476.67;125010;1102;104232;-79
2022/01/06 06:23:18;;;;;;;24.67;12.03;;;;;;;4.97;77.46;99479.39;125120;1101;104206;-78
2022/01/06 06:25:51;;;;;;;25.57;12.43;;;;;;;5.03;77.50;99478.74;125158;1102;104169;-78
2022/01/06 06:28:32;;;;;;;23.33;12.93;;;;;;;5.10;78.41;99478.19;125077;1102;104341;-79
2022/01/06 06:31:10;;;;;;;26.10;12.23;;;;;;;5.18;77.87;99478.50;125105;1102;104261;-78
2022/01/06 06:33:43;;;;;;;23.73;12.20;;;;;;;5.27;77.73;99470.19;125025;1102;104155;-79
2022/01/06 06:36:21;;;;;;;26.27;12.43;;;;;;;5.37;77.97;99473.20;124943;1102;104220;-78
2022/01/06 06:38:54;;;;;;;24.67;12.37;;;;;;;5.49;78.20;99477.13;124962;1099;104226;-78
2022/01/06 06:41:30;;;;;;;24.67;12.60;;;;;;;5.61;77.92;99480.22;125090;1099;104210;-78
2022/01/06 06:44:03;;;;;;;23.43;12.33;;;;;;;5.73;78.34;99491.11;125125;1099;104316;-79
2022/01/06 06:46:36;;;;;;;26.07;12.00;;;;;;;5.80;78.35;99512.14;125109;1098;104152;-78
2022/01/06 06:49:12;;;;;;;24.03;12.93;;;;;;;5.80;78.37;99513.05;125066;1102;104284;-78
2022/01/06 06:51:44;;;;;;;26.77;13.20;;;;;;;5.80;78.78;99512.14;125067;1102;105653;-78
2022/01/06 06:54:16;;;;;;;24.77;12.47;;;;;;;5.81;77.86;99514.80;125103;1102;104245;-78
2022/01/06 06:56:48;;;;;;;25.03;11.37;;;;;;;5.82;78.58;99533.94;125109;1102;104145;-80
2022/01/06 06:59:22;;;;;;;24.60;12.37;;;;;;;5.82;78.50;99523.52;125055;1100;104166;-78
2022/01/06 07:01:54;;;;;;;26.07;13.00;;;;;;;5.85;78.10;99505.42;124961;1102;104197;-80
2022/01/06 07:04:34;;;;;;;24.53;11.47;;;;;;;5.89;78.15;99509.90;125189;1102;104303;-79
2022/01/06 07:07:44;;;;;;;22.87;11.30;;;;;;;5.91;78.92;99513.47;125163;1099;104152;-79
2022/01/06 07:10:59;;;;;;;23.33;11.47;;;;;;;5.99;78.37;99530.30;125143;1102;112062;-80
2022/01/06 07:13:54;;;;;;;22.37;11.67;;;;;;;6.05;78.42;99527.05;125014;1102;104347;-81
2022/01/06 07:16:42;;;;;;;23.03;11.87;;;;;;;6.10;78.17;99534.19;125071;1102;101922;-81
2022/01/06 07:19:28;;;;;;;22.57;11.00;;;;;;;6.15;78.06;99528.28;124928;1102;104182;-82
2022/01/06 07:22:07;;;;;;;22.00;10.73;;;;;;;6.17;78.49;99531.82;125066;1102;104261;-81
2022/01/06 07:25:01;;;;;;;25.70;12.10;;;;;;;6.15;78.41;99538.70;125095;1102;104140;-80
2022/01/06 07:27:43;;;;;;;23.60;12.23;;;;;;;6.17;78.32;99529.22;125158;1102;104195;-81
2022/01/06 07:30:33;;;;;;;23.10;11.80;;;;;;;6.21;78.22;99528.52;125159;1100;104149;-81
2022/01/06 07:33:28;;;;;;;25.20;12.73;;;;;;;6.29;78.46;99519.25;124941;1102;102237;-79
2022/01/06 07:36:01;;;;;;;;;;;;;;;6.36;78.26;99517.76;124942;1101;105433;-78
2022/01/06 07:38:35;;;;;;;24.30;11.83;;;;;;;6.41;78.27;99530.13;124952;1102;104165;-80
2022/01/06 07:41:20;;;;;;;23.43;11.60;;;;;;;6.47;78.09;99525.14;125032;1102;104140;-80
2022/01/06 07:44:31;;;;;;;24.20;11.50;;;;;;;6.56;78.22;99521.09;125031;1102;102297;-81
2022/01/06 07:47:19;;;;;;;22.87;10.63;;;;;;;6.58;78.32;99538.57;125017;1102;104853;-81
2022/01/06 07:50:34;;;;;;;;;;;;;;;;;;;;;
2022/01/06 07:53:22;;;;;;;21.77;10.50;;;;;;;6.57;78.12;99552.42;125046;1102;104149;-81
2022/01/06 07:55:58;;;;;;;24.97;10.83;;;;;;;6.58;78.12;99554.21;125064;1102;104203;-82
2022/01/06 07:58:41;;;;;;;23.53;10.50;;;;;;;6.61;78.17;99550.84;125127;1101;104287;-82
2022/01/06 08:01:20;;;;;;;25.23;11.20;;;;;;;6.68;78.16;99550.20;125061;1102;104264;-81
2022/01/06 08:04:02;;;;;;;22.70;10.70;;;;;;;6.78;78.22;99556.66;125227;1102;104197;-81
2022/01/06 08:06:37;;;;;;;22.93;10.50;;;;;;;6.83;78.12;99558.58;125136;1099;102894;-81
2022/01/06 08:09:16;;;;;;;21.73;10.93;;;;;;;6.82;78.18;99558.53;125047;1102;104608;-81
2022/01/06 08:12:06;;;;;;;24.87;10.77;;;;;;;6.96;78.30;99566.84;124911;1102;118928;-80
2022/01/06 08:15:01;;;;;;;22.83;10.67;;;;;;;7.08;78.24;99561.17;125096;1102;104204;-81
2022/01/06 08:17:38;;;;;;;23.57;10.50;;;;;;;7.16;78.40;99567.54;125187;1102;104246;-82
2022/01/06 08:20:19;;;;;;;23.70;10.20;;;;;;;7.21;78.33;99560.75;125146;1102;104402;-82
2022/01/06 08:23:03;;;;;;;22.40;10.47;;;;;;;7.29;78.29;99574.97;124972;1106;104376;-79
2022/01/06 08:25:46;;;;;;;22.17;9.80;;;;;;;7.33;78.09;99579.43;125225;1102;104284;-80
2022/01/06 08:28:23;;;;;;;22.60;9.43;;;;;;;7.41;78.25;99574.47;124975;1104;104169;-79
2022/01/06 08:31:01;;;;;;;24.10;9.83;;;;;;;7.51;77.56;99581.78;125113;1102;104262;-78
2022/01/06 08:33:41;;;;;;;19.37;8.17;;;;;;;7.65;77.75;99586.55;125071;1102;104239;-78
2022/01/06 08:36:15;;;;;;;21.23;9.23;;;;;;;7.76;78.09;99582.59;124975;1102;104446;-78
2022/01/06 08:38:58;;;;;;;20.23;8.50;;;;;;;7.87;77.64;99578.59;125122;1102;102418;-79
2022/01/06 08:41:35;;;;;;;19.50;8.63;;;;;;;7.89;77.71;99574.28;125075;1102;104159;-79
2022/01/06 08:44:17;;;;;;;19.90;8.60;;;;;;;7.99;77.31;99578.06;125130;1102;104344;-80
2022/01/06 08:47:00;;;;;;;20.67;8.97;;;;;;;8.08;77.09;99583.58;125035;1102;104430;-79
2022/01/06 08:49:36;;;;;;;20.90;8.90;;;;;;;8.14;77.37;99582.89;125145;1102;104309;-80
2022/01/06 08:52:26;;;;;;;18.10;8.03;;;;;;;8.20;77.36;99585.70;125055;1102;103032;-81
2022/01/06 08:55:22;;;;;;;17.50;8.07;;;;;;;8.28;77.36;99578.09;125059;1103;104124;-79
2022/01/06 08:58:14;;;;;;;21.73;8.73;;;;;;;8.34;77.61;99574.78;125226;1102;104220;-81
2022/01/06 09:00:48;;;;;;;19.03;8.23;;;;;;;8.38;76.95;99576.63;125118;1102;104158;-80
2022/01/06 09:03:23;;;;;;;19.67;8.63;;;;;;;8.43;76.88;99577.64;125149;1102;104178;-80
2022/01/06 09:05:56;;;;;;;18.10;8.13;;;;;;;8.43;77.03;99583.81;125148;1102;104187;-78
2022/01/06 09:08:34;;;;;;;19.67;8.90;;;;;;;8.48;76.97;99576.10;125102;1102;104488;-80
2022/01/06 09:11:24;;;;;;;18.23;7.47;;;;;;;8.51;76.68;99568.34;125007;1102;102816;-80
2022/01/06 09:13:58;;;;;;;19.33;8.33;;;;;;;8.54;77.19;99580.61;125103;1102;104334;-80
2022/01/06 09:16:34;;;;;;;18.53;8.43;;;;;;;8.59;76.63;99590.37;125146;1102;104274;-78
2022/01/06 09:19:12;;;;;;;17.67;8.23;;;;;;;8.64;76.74;99578.30;125167;1102;104338;-78
2022/01/06 09:21:47;;;;;;;19.30;8.50;;;;;;;8.64;76.42;99580.04;125058;1099;104271;-79
2022/01/06 09:24:24;;;;;;;17.87;7.97;;;;;;;8.64;76.53;99578.30;125156;1102;104245;-79
2022/01/06 09:27:02;;;;;;;18.70;8.60;;;;;;;8.66;76.23;99567.88;125095;1102;104143;-79
2022/01/06 09:29:42;;;;;;;17.43;8.40;;;;;;;8.73;76.62;99566.35;125270;1102;104983;-79
2022/01/06 09:32:34;;;;;;;19.43;8.83;;;;;;;8.76;75.90;99569.93;125153;1100;104172;-79
2022/01/06 09:35:30;;;;;;;21.67;9.77;;;;;;;8.78;76.61;99564.73;125108;1102;104245;-80
2022/01/06 09:38:09;;;;;;;18.57;9.33;;;;;;;8.83;76.21;99572.72;125142;1102;104188;-79
2022/01/06 09:40:53;;;;;;;21.20;8.95;;;;;;;8.89;76.28;99565.91;125087;1102;104162;-79
2022/01/06 09:43:30;;;;;;;19.97;8.97;;;;;;;8.92;76.07;99572.97;125198;1099;102006;-80
2022/01/06 09:46:12;;;;;;;19.10;8.53;;;;;;;8.95;75.04;99566.08;125216;1102;104422;-79
2022/01/06 09:48:49;;;;;;;18.57;8.47;;;;;;;8.97;75.45;99580.08;125171;1102;104287;-79
2022/01/06 09:51:24;;;;;;;17.57;8.43;;;;;;;8.95;74.66;99576.55;125076;1102;104197;-79
2022/01/06 09:54:14;;;;;;;26.77;13.53;;;;;;;8.94;74.68;99561.72;125130;1102;109500;-79
2022/01/06 09:56:59;;;;;;;27.80;14.13;;;;;;;9.02;75.47;99559.27;125165;1102;104171;-79
2022/01/06 09:59:43;;;;;;;20.30;10.30;;;;;;;9.07;74.28;99575.09;125274;1102;104216;-78
2022/01/06 10:02:55;;;;;;;20.80;9.07;;;;;;;9.05;74.25;99569.83;125047;1102;104293;-80
2022/01/06 10:05:46;;;;;;;18.33;9.27;;;;;;;9.04;73.91;99567.16;125042;1102;104245;-80
2022/01/06 10:08:43;;;;;;;19.17;8.97;;;;;;;9.03;73.15;99574.14;125144;1101;104124;-79
2022/01/06 10:11:24;;;;;;;19.17;9.03;;;;;;;9.06;72.74;99575.97;125094;1099;102956;-80
2022/01/06 10:14:07;;;;;;;18.67;9.53;;;;;;;9.07;73.48;99572.48;125129;1102;105152;-79
2022/01/06 10:16:50;;;;;;;18.13;8.47;;;;;;;9.03;72.67;99573.27;125103;1102;104303;-80
2022/01/06 10:19:32;;;;;;;18.77;8.90;;;;;;;9.02;71.13;99571.48;125068;1102;104322;-79
2022/01/06 10:22:19;;;;;;;17.20;8.20;;;;;;;8.99;71.65;99562.72;125069;1102;104284;-82
2022/01/06 10:24:56;;;;;;;19.43;9.10;;;;;;;8.98;72.54;99566.17;125181;1099;102470;-79
2022/01/06 10:27:49;;;;;;;18.43;8.97;;;;;;;8.99;71.86;99556.57;125137;1099;104344;-78
2022/01/06 10:30:36;;;;;;;17.83;8.97;;;;;;;8.96;70.52;99562.63;125026;1102;104307;-77
2022/01/06 10:33:15;;;;;;;18.43;9.00;;;;;;;8.92;71.76;99565.13;124954;1102;104488;-79
2022/01/06 10:36:10;;;;;;;22.97;9.40;;;;;;;8.89;71.21;99555.45;124809;1106;102750;-77
2022/01/06 10:38:55;;;;;;;19.53;9.57;;;;;;;8.92;72.20;99555.53;124853;1102;104185;-79
2022/01/06 10:41:42;;;;;;;;;;;;;;;8.91;71.30;99556.40;124937;1102;104293;-79
2022/01/06 10:44:15;;;;;;;19.27;9.17;;;;;;;8.93;71.73;99559.93;124951;1101;104303;-79
2022/01/06 10:46:51;;;;;;;18.00;7.90;;;;;;;8.91;69.77;99565.95;125128;1102;104294;-79
2022/01/06 10:49:29;;;;;;;20.00;9.97;;;;;;;8.99;71.54;99562.72;125135;1102;104220;-79
2022/01/06 10:52:06;;;;;;;20.07;9.97;;;;;;;9.03;71.27;99570.65;125182;1099;104195;-79
2022/01/06 10:54:44;;;;;;;19.97;10.23;;;;;;;9.08;71.48;99566.41;125081;1099;104287;-80
2022/01/06 10:57:24;;;;;;;20.83;10.27;;;;;;;9.11;71.44;99572.61;125079;1102;104270;-78
2022/01/06 11:00:01;;;;;;;20.07;9.73;;;;;;;9.16;71.23;99571.02;125140;1102;104243;-79
2022/01/06 11:02:37;;;;;;;20.43;9.33;;;;;;;9.13;71.31;99573.55;125062;1102;104184;-78
2022/01/06 11:05:11;;;;;;;18.67;9.13;;;;;;;9.16;71.43;99567.49;125065;1102;104239;-79
2022/01/06 11:07:55;;;;;;;17.87;9.17;;;;;;;9.20;72.05;99558.89;124972;1102;104413;-79
2022/01/06 11:10:29;;;;;;;18.77;9.13;;;;;;;9.22;71.57;99566.78;125018;1102;104146;-79
2022/01/06 11:13:04;;;;;;;18.80;8.80;;;;;;;9.20;71.76;99565.86;125029;1102;104204;-79
2022/01/06 11:15:48;;;;;;;19.83;9.13;;;;;;;9.16;71.26;99562.27;124948;1102;104301;-80
2022/01/06 11:18:27;;;;;;;17.75;8.90;;;;;;;9.13;71.72;99563.09;125008;1099;104290;-79
2022/01/06 11:21:10;;;;;;;19.97;10.13;;;;;;;9.14;71.54;99564.84;124995;1099;104342;-79
2022/01/06 11:23:43;;;;;;;19.60;9.37;;;;;;;9.13;71.56;99565.70;125066;1102;104242;-79
2022/01/06 11:26:26;;;;;;;19.27;9.10;;;;;;;9.15;70.91;99565.74;126015;1099;104242;-80
2022/01/06 11:29:00;;;;;;;20.17;9.33;;;;;;;9.11;71.21;99559.52;125990;1099;104239;-79
2022/01/06 11:31:43;;;;;;;18.77;8.95;;;;;;;9.10;71.09;99562.09;126039;1099;104150;-79
2022/01/06 11:34:18;;;;;;;21.60;9.90;;;;;;;9.06;70.63;99570.73;125956;1099;104334;-78
2022/01/06 11:36:54;;;;;;;19.83;9.70;;;;;;;9.02;70.81;99571.48;125967;1099;104274;-79
2022/01/06 11:39:35;;;;;;;19.40;9.70;;;;;;;8.95;70.63;99579.16;126151;1099;104249;-80
2022/01/06 11:42:23;;;;;;;19.73;9.73;;;;;;;8.89;70.18;99581.61;126048;1099;104220;-80
2022/01/06 11:45:02;;;;;;;17.93;9.30;;;;;;;8.84;70.32;99580.61;125996;1099;104137;-80
2022/01/06 11:48:03;;;;;;;19.90;10.00;;;;;;;8.80;70.50;99578.73;125955;1099;104493;-80
2022/01/06 11:50:55;;;;;;;18.03;8.73;;;;;;;8.75;70.15;99582.96;126116;1099;104172;-79
2022/01/06 11:53:37;;;;;;;20.00;9.93;;;;;;;8.67;70.89;99593.20;126092;1098;104267;-78
2022/01/06 11:56:17;;;;;;;18.53;9.33;;;;;;;8.64;71.14;99630.61;126011;1098;104163;-79
2022/01/06 11:59:02;;;;;;;19.10;9.43;;;;;;;8.59;70.74;99639.17;125891;1099;105540;-79
2022/01/06 12:01:53;;;;;;;24.10;11.90;;;;;;;8.56;71.29;99653.03;125370;1099;104255;-79
2022/01/06 12:04:27;;;;;;;20.73;10.80;;;;;;;8.52;70.59;99651.16;126013;1099;104146;-78
2022/01/06 12:07:14;;;;;;;21.48;10.23;;;;;;;8.43;70.59;99622.08;125694;1099;104322;-79